sensor_id;sensor_type;location;lat;lon;timestamp;temperature;humidity
17529;DHT22;8882;53.192;8.184;2023-07-13T04:32:13;15.10;99.90
17529;DHT22;8882;53.192;8.184;2023-07-13T04:34:39;15.10;99.90
17529;DHT22;8882;53.192;8.184;2023-07-13T04:37:05;15.10;99.90
17529;DHT22;8882;53.192;8.184;2023-07-13T04:39:31;15.10;99.90
17529;DHT22;8882;53.192;8.184;2023-07-13T04:41:56;15.10;99.90
17529;DHT22;8882;53.192;8.184;2023-07-13T04:44:22;15.10;99.90
17529;DHT22;8882;53.192;8.184;2023-07-13T04:46:47;15.20;99.90
17529;DHT22;8882;53.192;8.184;2023-07-13T04:49:13;15.20;99.90
17529;DHT22;8882;53.192;8.184;2023-07-13T04:51:38;15.20;99.90
17529;DHT22;8882;53.192;8.184;2023-07-13T04:54:04;15.20;99.90
17529;DHT22;8882;53.192;8.184;2023-07-13T04:56:30;15.20;99.90
17529;DHT22;8882;53.192;8.184;2023-07-13T04:58:55;15.20;99.90
17529;DHT22;8882;53.192;8.184;2023-07-13T05:01:21;15.20;99.90
17529;DHT22;8882;53.192;8.184;2023-07-13T05:03:47;15.30;99.90
17529;DHT22;8882;53.192;8.184;2023-07-13T05:06:12;15.30;99.90
17529;DHT22;8882;53.192;8.184;2023-07-13T05:08:39;15.30;99.90
17529;DHT22;8882;53.192;8.184;2023-07-13T05:11:05;15.40;99.90
17529;DHT22;8882;53.192;8.184;2023-07-13T05:13:32;15.40;99.90
17529;DHT22;8882;53.192;8.184;2023-07-13T05:16:03;15.30;99.90
17529;DHT22;8882;53.192;8.184;2023-07-13T05:18:29;15.30;99.90
17529;DHT22;8882;53.192;8.184;2023-07-13T05:21:07;15.30;99.90
17529;DHT22;8882;53.192;8.184;2023-07-13T05:23:34;15.30;99.90
17529;DHT22;8882;53.192;8.184;2023-07-13T05:26:00;15.40;99.90
17529;DHT22;8882;53.192;8.184;2023-07-13T05:28:26;15.40;99.90
17529;DHT22;8882;53.192;8.184;2023-07-13T05:30:52;15.50;99.90
17529;DHT22;8882;53.192;8.184;2023-07-13T05:33:19;15.50;99.90
17529;DHT22;8882;53.192;8.184;2023-07-13T05:35:45;15.50;99.90
17529;DHT22;8882;53.192;8.184;2023-07-13T05:38:10;15.50;99.90
17529;DHT22;8882;53.192;8.184;2023-07-13T05:40:36;15.50;99.90
17529;DHT22;8882;53.192;8.184;2023-07-13T05:43:01;15.60;99.90
17529;DHT22;8882;53.192;8.184;2023-07-13T05:45:27;15.60;99.90
17529;DHT22;8882;53.192;8.184;2023-07-13T05:47:52;15.60;99.90
17529;DHT22;8882;53.192;8.184;2023-07-13T05:50:18;15.70;99.90
17529;DHT22;8882;53.192;8.184;2023-07-13T05:52:43;15.70;99.90
17529;DHT22;8882;53.192;8.184;2023-07-13T05:55:09;15.80;99.90
17529;DHT22;8882;53.192;8.184;2023-07-13T05:57:34;15.90;99.90
17529;DHT22;8882;53.192;8.184;2023-07-13T06:00:00;16.00;99.90
17529;DHT22;8882;53.192;8.184;2023-07-13T06:02:25;15.90;99.90
17529;DHT22;8882;53.192;8.184;2023-07-13T06:04:52;16.00;99.90
17529;DHT22;8882;53.192;8.184;2023-07-13T06:07:17;16.10;99.90
17529;DHT22;8882;53.192;8.184;2023-07-13T06:09:43;16.30;99.90
17529;DHT22;8882;53.192;8.184;2023-07-13T06:12:08;16.50;99.90
17529;DHT22;8882;53.192;8.184;2023-07-13T06:14:34;16.50;99.90
17529;DHT22;8882;53.192;8.184;2023-07-13T06:17:00;16.50;99.90
17529;DHT22;8882;53.192;8.184;2023-07-13T06:19:25;16.50;99.90
17529;DHT22;8882;53.192;8.184;2023-07-13T06:21:51;16.60;99.90
17529;DHT22;8882;53.192;8.184;2023-07-13T06:24:16;16.80;99.90
17529;DHT22;8882;53.192;8.184;2023-07-13T06:26:42;16.90;99.90
17529;DHT22;8882;53.192;8.184;2023-07-13T06:29:07;16.90;99.90
17529;DHT22;8882;53.192;8.184;2023-07-13T06:31:33;17.10;99.90
17529;DHT22;8882;53.192;8.184;2023-07-13T06:33:58;17.20;99.90
17529;DHT22;8882;53.192;8.184;2023-07-13T06:36:24;17.30;99.90
17529;DHT22;8882;53.192;8.184;2023-07-13T06:38:49;17.20;99.90
17529;DHT22;8882;53.192;8.184;2023-07-13T06:41:15;17.30;99.90
17529;DHT22;8882;53.192;8.184;2023-07-13T06:43:40;17.50;99.90
17529;DHT22;8882;53.192;8.184;2023-07-13T06:46:06;17.50;99.90
17529;DHT22;8882;53.192;8.184;2023-07-13T06:48:32;17.70;99.90
17529;DHT22;8882;53.192;8.184;2023-07-13T06:50:57;17.80;99.90
17529;DHT22;8882;53.192;8.184;2023-07-13T06:53:23;18.00;99.90
17529;DHT22;8882;53.192;8.184;2023-07-13T06:55:49;18.00;99.90
17529;DHT22;8882;53.192;8.184;2023-07-13T06:58:16;18.10;99.90
17529;DHT22;8882;53.192;8.184;2023-07-13T07:00:42;18.10;99.90
17529;DHT22;8882;53.192;8.184;2023-07-13T07:03:08;18.20;99.90
17529;DHT22;8882;53.192;8.184;2023-07-13T07:05:33;18.60;99.90
17529;DHT22;8882;53.192;8.184;2023-07-13T07:07:59;18.60;99.90
17529;DHT22;8882;53.192;8.184;2023-07-13T07:10:26;18.60;99.90
17529;DHT22;8882;53.192;8.184;2023-07-13T07:12:51;18.70;99.90
17529;DHT22;8882;53.192;8.184;2023-07-13T07:15:18;18.80;99.90
17529;DHT22;8882;53.192;8.184;2023-07-13T07:17:43;19.00;99.90
17529;DHT22;8882;53.192;8.184;2023-07-13T07:20:09;19.20;99.90
17529;DHT22;8882;53.192;8.184;2023-07-13T07:22:35;19.50;99.90
17529;DHT22;8882;53.192;8.184;2023-07-13T07:25:01;19.50;99.90
17529;DHT22;8882;53.192;8.184;2023-07-13T07:27:27;19.60;99.90
17529;DHT22;8882;53.192;8.184;2023-07-13T07:29:53;19.50;99.90
17529;DHT22;8882;53.192;8.184;2023-07-13T07:32:19;19.40;99.90
17529;DHT22;8882;53.192;8.184;2023-07-13T07:34:45;19.30;99.90
17529;DHT22;8882;53.192;8.184;2023-07-13T07:37:13;19.50;99.90
17529;DHT22;8882;53.192;8.184;2023-07-13T07:39:38;19.70;99.90
17529;DHT22;8882;53.192;8.184;2023-07-13T07:42:04;19.70;99.90
17529;DHT22;8882;53.192;8.184;2023-07-13T07:44:31;19.70;99.90
17529;DHT22;8882;53.192;8.184;2023-07-13T07:46:57;20.00;99.90
17529;DHT22;8882;53.192;8.184;2023-07-13T07:49:22;20.10;99.90
17529;DHT22;8882;53.192;8.184;2023-07-13T07:51:48;20.30;99.90
17529;DHT22;8882;53.192;8.184;2023-07-13T07:54:13;20.40;99.90
17529;DHT22;8882;53.192;8.184;2023-07-13T07:56:40;20.50;99.90
17529;DHT22;8882;53.192;8.184;2023-07-13T07:59:06;20.40;99.90
17529;DHT22;8882;53.192;8.184;2023-07-13T08:01:31;20.40;99.90
17529;DHT22;8882;53.192;8.184;2023-07-13T08:03:57;20.40;99.90
17529;DHT22;8882;53.192;8.184;2023-07-13T08:06:23;20.40;99.90
17529;DHT22;8882;53.192;8.184;2023-07-13T08:08:48;20.40;99.90
17529;DHT22;8882;53.192;8.184;2023-07-13T08:11:14;20.60;99.90
17529;DHT22;8882;53.192;8.184;2023-07-13T08:13:40;20.80;99.90
17529;DHT22;8882;53.192;8.184;2023-07-13T08:16:06;20.80;99.90
17529;DHT22;8882;53.192;8.184;2023-07-13T08:18:32;20.90;99.90
17529;DHT22;8882;53.192;8.184;2023-07-13T08:20:58;21.10;99.90
17529;DHT22;8882;53.192;8.184;2023-07-13T08:23:25;21.20;99.90
17529;DHT22;8882;53.192;8.184;2023-07-13T08:25:54;21.30;99.90
17529;DHT22;8882;53.192;8.184;2023-07-13T08:28:21;21.40;99.90
17529;DHT22;8882;53.192;8.184;2023-07-13T08:30:47;21.60;99.90
17529;DHT22;8882;53.192;8.184;2023-07-13T08:33:17;21.50;99.90
17529;DHT22;8882;53.192;8.184;2023-07-13T08:35:46;21.60;99.90
17529;DHT22;8882;53.192;8.184;2023-07-13T08:38:12;21.50;99.90
17529;DHT22;8882;53.192;8.184;2023-07-13T08:40:39;21.70;99.90
17529;DHT22;8882;53.192;8.184;2023-07-13T08:43:04;21.40;99.90
17529;DHT22;8882;53.192;8.184;2023-07-13T08:45:41;21.60;99.90
17529;DHT22;8882;53.192;8.184;2023-07-13T08:48:16;22.00;99.90
17529;DHT22;8882;53.192;8.184;2023-07-13T08:51:00;22.10;99.90
17529;DHT22;8882;53.192;8.184;2023-07-13T08:53:39;22.20;99.90
17529;DHT22;8882;53.192;8.184;2023-07-13T08:56:11;22.20;99.90
17529;DHT22;8882;53.192;8.184;2023-07-13T08:58:41;22.10;99.90
17529;DHT22;8882;53.192;8.184;2023-07-13T09:01:41;22.20;99.90
17529;DHT22;8882;53.192;8.184;2023-07-13T09:04:19;22.50;99.90
17529;DHT22;8882;53.192;8.184;2023-07-13T09:12:31;22.70;99.90
17529;DHT22;8882;53.192;8.184;2023-07-13T09:15:01;22.60;99.90
17529;DHT22;8882;53.192;8.184;2023-07-13T09:17:37;22.50;99.90
17529;DHT22;8882;53.192;8.184;2023-07-13T09:20:31;22.70;99.90
17529;DHT22;8882;53.192;8.184;2023-07-13T09:23:01;22.90;99.90
17529;DHT22;8882;53.192;8.184;2023-07-13T09:25:34;22.70;99.90
17529;DHT22;8882;53.192;8.184;2023-07-13T09:28:08;22.60;99.90
17529;DHT22;8882;53.192;8.184;2023-07-13T09:31:42;22.60;99.90
17529;DHT22;8882;53.192;8.184;2023-07-13T09:33:40;22.40;99.90
17529;DHT22;8882;53.192;8.184;2023-07-13T09:36:27;22.20;99.90
17529;DHT22;8882;53.192;8.184;2023-07-13T09:42:30;21.90;99.90
17529;DHT22;8882;53.192;8.184;2023-07-13T09:46:56;22.20;99.90
17529;DHT22;8882;53.192;8.184;2023-07-13T09:49:35;22.40;99.90
17529;DHT22;8882;53.192;8.184;2023-07-13T09:52:07;22.40;99.90
17529;DHT22;8882;53.192;8.184;2023-07-13T09:54:36;22.60;99.90
17529;DHT22;8882;53.192;8.184;2023-07-13T09:57:08;22.70;99.90
17529;DHT22;8882;53.192;8.184;2023-07-13T09:59:41;22.50;99.90
17529;DHT22;8882;53.192;8.184;2023-07-13T10:02:37;22.50;99.90
17529;DHT22;8882;53.192;8.184;2023-07-13T10:05:11;22.60;99.90
17529;DHT22;8882;53.192;8.184;2023-07-13T10:07:42;22.80;99.90
17529;DHT22;8882;53.192;8.184;2023-07-13T10:10:18;22.70;99.90
17529;DHT22;8882;53.192;8.184;2023-07-13T10:12:45;22.90;99.90
17529;DHT22;8882;53.192;8.184;2023-07-13T10:15:20;23.10;99.90
17529;DHT22;8882;53.192;8.184;2023-07-13T10:17:47;23.30;99.90
17529;DHT22;8882;53.192;8.184;2023-07-13T10:20:14;23.50;99.90
17529;DHT22;8882;53.192;8.184;2023-07-13T10:25:20;23.10;99.90
17529;DHT22;8882;53.192;8.184;2023-07-13T10:27:52;22.70;99.90
17529;DHT22;8882;53.192;8.184;2023-07-13T10:30:24;22.80;99.90
17529;DHT22;8882;53.192;8.184;2023-07-13T10:32:53;23.00;99.90
17529;DHT22;8882;53.192;8.184;2023-07-13T10:35:20;23.20;99.90
17529;DHT22;8882;53.192;8.184;2023-07-13T10:40:32;23.40;99.90
17529;DHT22;8882;53.192;8.184;2023-07-13T10:43:02;23.20;99.90
17529;DHT22;8882;53.192;8.184;2023-07-13T10:45:34;23.00;99.90
17529;DHT22;8882;53.192;8.184;2023-07-13T10:48:00;22.80;99.90
17529;DHT22;8882;53.192;8.184;2023-07-13T10:50:28;22.40;99.90
17529;DHT22;8882;53.192;8.184;2023-07-13T10:53:17;22.20;99.90
17529;DHT22;8882;53.192;8.184;2023-07-13T11:03:55;20.90;99.90
17529;DHT22;8882;53.192;8.184;2023-07-13T11:06:40;20.30;99.90
17529;DHT22;8882;53.192;8.184;2023-07-13T11:09:35;19.90;99.90
17529;DHT22;8882;53.192;8.184;2023-07-13T11:15:04;19.30;99.90
17529;DHT22;8882;53.192;8.184;2023-07-13T11:25:31;18.60;99.90
17529;DHT22;8882;53.192;8.184;2023-07-13T11:35:51;18.30;99.90
17529;DHT22;8882;53.192;8.184;2023-07-13T11:38:22;17.80;99.90
17529;DHT22;8882;53.192;8.184;2023-07-13T11:40:51;17.70;99.90
17529;DHT22;8882;53.192;8.184;2023-07-13T11:43:18;17.60;99.90
17529;DHT22;8882;53.192;8.184;2023-07-13T11:45:44;17.80;99.90
17529;DHT22;8882;53.192;8.184;2023-07-13T11:48:28;17.80;99.90
17529;DHT22;8882;53.192;8.184;2023-07-13T11:51:04;17.80;99.90
17529;DHT22;8882;53.192;8.184;2023-07-13T11:53:44;17.90;99.90
17529;DHT22;8882;53.192;8.184;2023-07-13T11:56:10;17.90;99.90
17529;DHT22;8882;53.192;8.184;2023-07-13T11:58:36;18.00;99.90
17529;DHT22;8882;53.192;8.184;2023-07-13T12:01:02;18.10;99.90
17529;DHT22;8882;53.192;8.184;2023-07-13T12:03:31;18.40;99.90
17529;DHT22;8882;53.192;8.184;2023-07-13T12:08:25;19.20;99.90
17529;DHT22;8882;53.192;8.184;2023-07-13T12:11:00;19.30;1.00
17529;DHT22;8882;53.192;8.184;2023-07-13T12:13:36;19.50;1.00
17529;DHT22;8882;53.192;8.184;2023-07-13T12:16:11;19.80;1.00
17529;DHT22;8882;53.192;8.184;2023-07-13T12:18:38;20.00;1.00
17529;DHT22;8882;53.192;8.184;2023-07-13T12:21:04;20.10;1.00
17529;DHT22;8882;53.192;8.184;2023-07-13T12:23:34;20.30;1.00
17529;DHT22;8882;53.192;8.184;2023-07-13T12:26:03;20.60;1.00
17529;DHT22;8882;53.192;8.184;2023-07-13T12:28:47;20.80;1.00
17529;DHT22;8882;53.192;8.184;2023-07-13T12:31:40;20.90;1.00
17529;DHT22;8882;53.192;8.184;2023-07-13T12:36:59;20.90;1.00
17529;DHT22;8882;53.192;8.184;2023-07-13T12:39:34;21.00;1.00
17529;DHT22;8882;53.192;8.184;2023-07-13T12:42:27;21.20;1.00
17529;DHT22;8882;53.192;8.184;2023-07-13T12:45:29;21.30;1.00
17529;DHT22;8882;53.192;8.184;2023-07-13T12:48:04;21.60;1.00
17529;DHT22;8882;53.192;8.184;2023-07-13T12:50:38;21.70;1.00
17529;DHT22;8882;53.192;8.184;2023-07-13T12:53:13;22.10;1.00
17529;DHT22;8882;53.192;8.184;2023-07-13T12:55:59;21.80;1.00
17529;DHT22;8882;53.192;8.184;2023-07-13T12:58:31;21.40;1.00
17529;DHT22;8882;53.192;8.184;2023-07-13T13:00:59;21.60;1.00
17529;DHT22;8882;53.192;8.184;2023-07-13T13:03:34;21.70;1.00
17529;DHT22;8882;53.192;8.184;2023-07-13T13:06:04;21.50;1.00
17529;DHT22;8882;53.192;8.184;2023-07-13T13:08:35;21.50;1.00
17529;DHT22;8882;53.192;8.184;2023-07-13T13:11:01;21.60;1.00
17529;DHT22;8882;53.192;8.184;2023-07-13T13:13:27;21.40;1.00
17529;DHT22;8882;53.192;8.184;2023-07-13T13:15:53;21.40;1.00
17529;DHT22;8882;53.192;8.184;2023-07-13T13:18:21;21.10;1.00
17529;DHT22;8882;53.192;8.184;2023-07-13T13:20:48;20.80;1.00
17529;DHT22;8882;53.192;8.184;2023-07-13T13:23:16;20.70;1.00
17529;DHT22;8882;53.192;8.184;2023-07-13T13:25:47;20.40;1.00
17529;DHT22;8882;53.192;8.184;2023-07-13T13:28:15;20.30;1.00
17529;DHT22;8882;53.192;8.184;2023-07-13T13:30:42;20.30;1.00
17529;DHT22;8882;53.192;8.184;2023-07-13T13:33:13;20.00;1.00
17529;DHT22;8882;53.192;8.184;2023-07-13T13:35:40;20.00;1.00
17529;DHT22;8882;53.192;8.184;2023-07-13T13:38:17;19.90;1.00
17529;DHT22;8882;53.192;8.184;2023-07-13T13:40:44;19.80;1.00
17529;DHT22;8882;53.192;8.184;2023-07-13T13:43:23;19.80;1.00
17529;DHT22;8882;53.192;8.184;2023-07-13T13:45:56;19.70;1.00
17529;DHT22;8882;53.192;8.184;2023-07-13T13:48:34;19.50;1.00
17529;DHT22;8882;53.192;8.184;2023-07-13T13:51:11;19.20;1.00
17529;DHT22;8882;53.192;8.184;2023-07-13T13:53:37;19.10;1.00
17529;DHT22;8882;53.192;8.184;2023-07-13T13:56:05;19.10;1.00
17529;DHT22;8882;53.192;8.184;2023-07-13T13:58:30;19.10;1.00
17529;DHT22;8882;53.192;8.184;2023-07-13T14:00:56;19.20;1.00
17529;DHT22;8882;53.192;8.184;2023-07-13T14:03:24;19.10;1.00
17529;DHT22;8882;53.192;8.184;2023-07-13T14:05:50;18.90;87.40
17529;DHT22;8882;53.192;8.184;2023-07-13T14:08:17;18.70;99.90
17529;DHT22;8882;53.192;8.184;2023-07-13T14:10:45;18.40;99.90
17529;DHT22;8882;53.192;8.184;2023-07-13T14:13:20;18.10;99.90
17529;DHT22;8882;53.192;8.184;2023-07-13T14:15:47;17.70;99.90
17529;DHT22;8882;53.192;8.184;2023-07-13T14:18:13;17.50;99.90
17529;DHT22;8882;53.192;8.184;2023-07-13T14:20:46;17.60;99.90
17529;DHT22;8882;53.192;8.184;2023-07-13T14:23:16;17.60;99.90
17529;DHT22;8882;53.192;8.184;2023-07-13T14:25:44;17.60;99.90
17529;DHT22;8882;53.192;8.184;2023-07-13T14:28:21;17.60;99.90
17529;DHT22;8882;53.192;8.184;2023-07-13T14:30:48;17.50;99.90
17529;DHT22;8882;53.192;8.184;2023-07-13T14:33:14;17.50;99.90
17529;DHT22;8882;53.192;8.184;2023-07-13T14:35:40;17.60;99.90
17529;DHT22;8882;53.192;8.184;2023-07-13T14:38:10;17.60;99.90
17529;DHT22;8882;53.192;8.184;2023-07-13T14:40:36;17.60;99.90
17529;DHT22;8882;53.192;8.184;2023-07-13T14:43:02;17.60;99.90
17529;DHT22;8882;53.192;8.184;2023-07-13T14:45:28;17.70;99.90
17529;DHT22;8882;53.192;8.184;2023-07-13T14:47:55;17.70;99.90
17529;DHT22;8882;53.192;8.184;2023-07-13T14:50:32;17.70;99.90
17529;DHT22;8882;53.192;8.184;2023-07-13T14:53:00;17.70;99.90
17529;DHT22;8882;53.192;8.184;2023-07-13T14:55:26;17.70;99.90
17529;DHT22;8882;53.192;8.184;2023-07-13T14:57:52;17.60;99.90
17529;DHT22;8882;53.192;8.184;2023-07-13T15:00:22;17.70;99.90
17529;DHT22;8882;53.192;8.184;2023-07-13T15:02:51;17.70;99.90
17529;DHT22;8882;53.192;8.184;2023-07-13T15:05:21;17.60;99.90
17529;DHT22;8882;53.192;8.184;2023-07-13T15:07:48;17.60;99.90
17529;DHT22;8882;53.192;8.184;2023-07-13T15:10:16;17.50;99.90
17529;DHT22;8882;53.192;8.184;2023-07-13T15:12:42;17.40;99.90
17529;DHT22;8882;53.192;8.184;2023-07-13T15:15:07;17.40;99.90
17529;DHT22;8882;53.192;8.184;2023-07-13T15:17:38;17.40;99.90
17529;DHT22;8882;53.192;8.184;2023-07-13T15:20:32;17.50;99.90
17529;DHT22;8882;53.192;8.184;2023-07-13T15:22:58;17.50;99.90
17529;DHT22;8882;53.192;8.184;2023-07-13T15:25:26;17.60;99.90
17529;DHT22;8882;53.192;8.184;2023-07-13T15:27:53;17.60;99.90
17529;DHT22;8882;53.192;8.184;2023-07-13T15:30:19;17.70;99.90
17529;DHT22;8882;53.192;8.184;2023-07-13T15:32:46;17.70;99.90
17529;DHT22;8882;53.192;8.184;2023-07-13T15:35:21;17.90;99.90
17529;DHT22;8882;53.192;8.184;2023-07-13T15:37:47;18.00;99.90
17529;DHT22;8882;53.192;8.184;2023-07-13T15:40:14;18.00;99.90
17529;DHT22;8882;53.192;8.184;2023-07-13T15:42:41;18.10;99.90
17529;DHT22;8882;53.192;8.184;2023-07-13T15:45:25;18.00;99.90
17529;DHT22;8882;53.192;8.184;2023-07-13T15:47:51;18.00;99.90
17529;DHT22;8882;53.192;8.184;2023-07-13T15:50:24;17.90;99.90
17529;DHT22;8882;53.192;8.184;2023-07-13T15:52:52;17.90;99.90
17529;DHT22;8882;53.192;8.184;2023-07-13T15:55:19;18.00;99.90
17529;DHT22;8882;53.192;8.184;2023-07-13T15:57:48;18.10;99.90
17529;DHT22;8882;53.192;8.184;2023-07-13T16:00:25;18.00;99.90
17529;DHT22;8882;53.192;8.184;2023-07-13T16:02:52;18.00;99.90
17529;DHT22;8882;53.192;8.184;2023-07-13T16:05:18;18.10;99.90
17529;DHT22;8882;53.192;8.184;2023-07-13T16:07:48;18.00;99.90
17529;DHT22;8882;53.192;8.184;2023-07-13T16:10:25;18.10;99.90
17529;DHT22;8882;53.192;8.184;2023-07-13T16:12:52;18.10;99.90
17529;DHT22;8882;53.192;8.184;2023-07-13T16:15:19;18.10;99.90
17529;DHT22;8882;53.192;8.184;2023-07-13T16:17:47;18.10;99.90
17529;DHT22;8882;53.192;8.184;2023-07-13T16:20:13;18.20;99.90
17529;DHT22;8882;53.192;8.184;2023-07-13T16:22:40;18.30;99.90
17529;DHT22;8882;53.192;8.184;2023-07-13T16:25:14;18.40;99.90
17529;DHT22;8882;53.192;8.184;2023-07-13T16:27:40;18.40;99.90
17529;DHT22;8882;53.192;8.184;2023-07-13T16:30:22;18.40;99.90
17529;DHT22;8882;53.192;8.184;2023-07-13T16:32:58;18.50;99.90
17529;DHT22;8882;53.192;8.184;2023-07-13T16:35:31;18.50;99.90
17529;DHT22;8882;53.192;8.184;2023-07-13T16:38:01;18.50;99.90
17529;DHT22;8882;53.192;8.184;2023-07-13T16:40:32;18.50;99.90
17529;DHT22;8882;53.192;8.184;2023-07-13T16:42:59;18.60;99.90
17529;DHT22;8882;53.192;8.184;2023-07-13T16:45:27;18.60;99.90
17529;DHT22;8882;53.192;8.184;2023-07-13T16:47:55;18.60;99.90
17529;DHT22;8882;53.192;8.184;2023-07-13T16:50:24;18.60;99.90
17529;DHT22;8882;53.192;8.184;2023-07-13T16:52:50;18.50;99.90
17529;DHT22;8882;53.192;8.184;2023-07-13T16:55:19;18.60;99.90
17529;DHT22;8882;53.192;8.184;2023-07-13T16:57:55;18.70;99.90
17529;DHT22;8882;53.192;8.184;2023-07-13T17:00:24;18.70;99.90
17529;DHT22;8882;53.192;8.184;2023-07-13T17:02:59;18.70;99.90
17529;DHT22;8882;53.192;8.184;2023-07-13T17:05:33;18.60;99.90
17529;DHT22;8882;53.192;8.184;2023-07-13T17:08:03;18.60;99.90
17529;DHT22;8882;53.192;8.184;2023-07-13T17:10:35;18.50;99.90
17529;DHT22;8882;53.192;8.184;2023-07-13T17:13:01;18.50;99.90
17529;DHT22;8882;53.192;8.184;2023-07-13T17:15:27;18.60;99.90
17529;DHT22;8882;53.192;8.184;2023-07-13T17:17:54;18.60;99.90
17529;DHT22;8882;53.192;8.184;2023-07-13T17:20:31;18.60;99.90
17529;DHT22;8882;53.192;8.184;2023-07-13T17:22:57;18.60;99.90
17529;DHT22;8882;53.192;8.184;2023-07-13T17:25:23;18.70;99.90
17529;DHT22;8882;53.192;8.184;2023-07-13T17:27:50;18.50;99.90
17529;DHT22;8882;53.192;8.184;2023-07-13T17:30:18;18.50;99.90
17529;DHT22;8882;53.192;8.184;2023-07-13T17:32:46;18.40;99.90
17529;DHT22;8882;53.192;8.184;2023-07-13T17:35:33;18.30;99.90
17529;DHT22;8882;53.192;8.184;2023-07-13T17:38:01;18.30;99.90
17529;DHT22;8882;53.192;8.184;2023-07-13T17:40:28;18.30;99.90
17529;DHT22;8882;53.192;8.184;2023-07-13T17:42:54;18.30;99.90
17529;DHT22;8882;53.192;8.184;2023-07-13T17:45:25;18.40;99.90
17529;DHT22;8882;53.192;8.184;2023-07-13T17:47:51;18.40;99.90
17529;DHT22;8882;53.192;8.184;2023-07-13T17:50:24;18.40;99.90
17529;DHT22;8882;53.192;8.184;2023-07-13T17:52:50;18.40;99.90
17529;DHT22;8882;53.192;8.184;2023-07-13T17:55:17;18.30;99.90
17529;DHT22;8882;53.192;8.184;2023-07-13T17:57:45;18.50;99.90
17529;DHT22;8882;53.192;8.184;2023-07-13T18:00:18;18.60;99.90
17529;DHT22;8882;53.192;8.184;2023-07-13T18:03:01;18.70;99.90
17529;DHT22;8882;53.192;8.184;2023-07-13T18:05:29;18.70;99.90
17529;DHT22;8882;53.192;8.184;2023-07-13T18:07:55;18.80;99.90
17529;DHT22;8882;53.192;8.184;2023-07-13T18:10:21;18.90;99.90
17529;DHT22;8882;53.192;8.184;2023-07-13T18:12:52;18.90;99.90
17529;DHT22;8882;53.192;8.184;2023-07-13T18:15:20;18.90;99.90
17529;DHT22;8882;53.192;8.184;2023-07-13T18:17:48;19.10;99.90
17529;DHT22;8882;53.192;8.184;2023-07-13T18:20:17;19.20;99.90
17529;DHT22;8882;53.192;8.184;2023-07-13T18:22:43;19.30;99.90
17529;DHT22;8882;53.192;8.184;2023-07-13T18:25:18;19.40;99.90
17529;DHT22;8882;53.192;8.184;2023-07-13T18:27:44;19.50;99.90
17529;DHT22;8882;53.192;8.184;2023-07-13T18:30:12;19.40;99.90
17529;DHT22;8882;53.192;8.184;2023-07-13T18:32:44;19.50;99.90
17529;DHT22;8882;53.192;8.184;2023-07-13T18:35:25;19.50;99.90
17529;DHT22;8882;53.192;8.184;2023-07-13T18:37:52;19.50;99.90
17529;DHT22;8882;53.192;8.184;2023-07-13T18:40:18;19.50;99.90
17529;DHT22;8882;53.192;8.184;2023-07-13T18:42:46;19.50;99.90
17529;DHT22;8882;53.192;8.184;2023-07-13T18:45:14;19.50;99.90
17529;DHT22;8882;53.192;8.184;2023-07-13T18:47:46;19.50;99.90
17529;DHT22;8882;53.192;8.184;2023-07-13T18:50:16;19.50;99.90
17529;DHT22;8882;53.192;8.184;2023-07-13T18:52:44;19.50;99.90
17529;DHT22;8882;53.192;8.184;2023-07-13T18:55:18;19.50;99.90
17529;DHT22;8882;53.192;8.184;2023-07-13T18:57:44;19.40;99.90
17529;DHT22;8882;53.192;8.184;2023-07-13T19:00:12;19.40;99.90
17529;DHT22;8882;53.192;8.184;2023-07-13T19:02:38;19.40;99.90
17529;DHT22;8882;53.192;8.184;2023-07-13T19:05:20;19.40;99.90
17529;DHT22;8882;53.192;8.184;2023-07-13T19:07:46;19.40;99.90
17529;DHT22;8882;53.192;8.184;2023-07-13T19:10:16;19.40;99.90
17529;DHT22;8882;53.192;8.184;2023-07-13T19:12:46;19.40;99.90
17529;DHT22;8882;53.192;8.184;2023-07-13T19:15:30;19.40;99.90
17529;DHT22;8882;53.192;8.184;2023-07-13T19:17:57;19.50;99.90
17529;DHT22;8882;53.192;8.184;2023-07-13T19:20:24;19.50;99.90
17529;DHT22;8882;53.192;8.184;2023-07-13T19:23:16;19.40;99.90
17529;DHT22;8882;53.192;8.184;2023-07-13T19:25:43;19.40;99.90
17529;DHT22;8882;53.192;8.184;2023-07-13T19:28:31;19.20;99.90
17529;DHT22;8882;53.192;8.184;2023-07-13T19:30:59;19.20;99.90
17529;DHT22;8882;53.192;8.184;2023-07-13T19:33:25;19.10;99.90
17529;DHT22;8882;53.192;8.184;2023-07-13T19:35:51;19.10;99.90
17529;DHT22;8882;53.192;8.184;2023-07-13T19:38:22;19.00;99.90
17529;DHT22;8882;53.192;8.184;2023-07-13T19:40:48;18.90;99.90
17529;DHT22;8882;53.192;8.184;2023-07-13T19:43:15;18.90;99.90
17529;DHT22;8882;53.192;8.184;2023-07-13T19:45:40;18.80;99.90
17529;DHT22;8882;53.192;8.184;2023-07-13T19:48:07;18.80;99.90
17529;DHT22;8882;53.192;8.184;2023-07-13T19:50:33;18.70;99.90
17529;DHT22;8882;53.192;8.184;2023-07-13T19:53:00;18.70;99.90
17529;DHT22;8882;53.192;8.184;2023-07-13T19:55:27;18.60;99.90
17529;DHT22;8882;53.192;8.184;2023-07-13T19:57:53;18.60;99.90
17529;DHT22;8882;53.192;8.184;2023-07-13T20:00:25;18.50;99.90
17529;DHT22;8882;53.192;8.184;2023-07-13T20:02:51;18.50;99.90
17529;DHT22;8882;53.192;8.184;2023-07-13T20:05:21;18.40;99.90
17529;DHT22;8882;53.192;8.184;2023-07-13T20:07:59;18.40;99.90
17529;DHT22;8882;53.192;8.184;2023-07-13T20:10:30;18.30;99.90
17529;DHT22;8882;53.192;8.184;2023-07-13T20:12:58;18.30;99.90
17529;DHT22;8882;53.192;8.184;2023-07-13T20:15:30;18.30;99.90
17529;DHT22;8882;53.192;8.184;2023-07-13T20:17:58;18.20;99.90
17529;DHT22;8882;53.192;8.184;2023-07-13T20:20:33;18.20;99.90
17529;DHT22;8882;53.192;8.184;2023-07-13T20:23:00;18.20;99.90
17529;DHT22;8882;53.192;8.184;2023-07-13T20:25:29;18.20;99.90
17529;DHT22;8882;53.192;8.184;2023-07-13T20:27:56;18.20;99.90
17529;DHT22;8882;53.192;8.184;2023-07-13T20:30:29;18.10;99.90
17529;DHT22;8882;53.192;8.184;2023-07-13T20:32:55;18.10;99.90
17529;DHT22;8882;53.192;8.184;2023-07-13T20:35:28;18.10;99.90
17529;DHT22;8882;53.192;8.184;2023-07-13T20:37:54;18.10;99.90
17529;DHT22;8882;53.192;8.184;2023-07-13T20:40:22;18.00;99.90
17529;DHT22;8882;53.192;8.184;2023-07-13T20:42:48;18.00;99.90
17529;DHT22;8882;53.192;8.184;2023-07-13T20:45:15;18.00;99.90
17529;DHT22;8882;53.192;8.184;2023-07-13T20:47:47;17.90;99.90
17529;DHT22;8882;53.192;8.184;2023-07-13T20:50:23;17.90;99.90
17529;DHT22;8882;53.192;8.184;2023-07-13T20:52:51;17.90;99.90
17529;DHT22;8882;53.192;8.184;2023-07-13T20:55:20;17.80;99.90
17529;DHT22;8882;53.192;8.184;2023-07-13T20:57:46;17.80;99.90
